sensor_id;sensor_type;location;lat;lon;timestamp;P1;durP1;ratioP1;P2;durP2;ratioP2
84889;SDS011;75153;52.222;5.160;2024-03-06T00:02:00;46.63;;;23.80;;
84889;SDS011;75153;52.222;5.160;2024-03-06T00:04:26;39.43;;;21.60;;
84889;SDS011;75153;52.222;5.160;2024-03-06T00:06:51;45.17;;;25.02;;
84889;SDS011;75153;52.222;5.160;2024-03-06T00:09:17;46.03;;;24.15;;
84889;SDS011;75153;52.222;5.160;2024-03-06T00:11:43;42.65;;;22.35;;
84889;SDS011;75153;52.222;5.160;2024-03-06T00:14:09;42.43;;;22.63;;
84889;SDS011;75153;52.222;5.160;2024-03-06T00:16:37;43.92;;;23.27;;
84889;SDS011;75153;52.222;5.160;2024-03-06T00:19:03;45.33;;;24.38;;
84889;SDS011;75153;52.222;5.160;2024-03-06T00:21:28;45.33;;;23.90;;
84889;SDS011;75153;52.222;5.160;2024-03-06T00:23:54;45.05;;;23.92;;
84889;SDS011;75153;52.222;5.160;2024-03-06T00:26:20;40.88;;;23.55;;
84889;SDS011;75153;52.222;5.160;2024-03-06T00:28:46;41.40;;;23.27;;
84889;SDS011;75153;52.222;5.160;2024-03-06T00:31:12;42.95;;;22.45;;
84889;SDS011;75153;52.222;5.160;2024-03-06T00:33:37;40.27;;;21.80;;
84889;SDS011;75153;52.222;5.160;2024-03-06T00:36:03;43.60;;;23.20;;
84889;SDS011;75153;52.222;5.160;2024-03-06T00:38:29;42.35;;;23.25;;
84889;SDS011;75153;52.222;5.160;2024-03-06T00:40:54;41.53;;;22.37;;
84889;SDS011;75153;52.222;5.160;2024-03-06T00:43:22;40.05;;;22.00;;
84889;SDS011;75153;52.222;5.160;2024-03-06T00:45:47;39.30;;;21.67;;
84889;SDS011;75153;52.222;5.160;2024-03-06T00:48:13;42.77;;;23.10;;
84889;SDS011;75153;52.222;5.160;2024-03-06T00:50:38;40.50;;;23.75;;
84889;SDS011;75153;52.222;5.160;2024-03-06T00:53:04;40.50;;;22.27;;
84889;SDS011;75153;52.222;5.160;2024-03-06T00:55:29;37.20;;;20.57;;
84889;SDS011;75153;52.222;5.160;2024-03-06T00:57:55;37.93;;;20.93;;
84889;SDS011;75153;52.222;5.160;2024-03-06T01:00:20;34.20;;;20.73;;
84889;SDS011;75153;52.222;5.160;2024-03-06T01:02:47;34.60;;;19.97;;
84889;SDS011;75153;52.222;5.160;2024-03-06T01:05:12;37.67;;;20.65;;
84889;SDS011;75153;52.222;5.160;2024-03-06T01:07:38;36.30;;;21.50;;
84889;SDS011;75153;52.222;5.160;2024-03-06T01:10:04;35.28;;;21.25;;
84889;SDS011;75153;52.222;5.160;2024-03-06T01:12:32;36.90;;;22.98;;
84889;SDS011;75153;52.222;5.160;2024-03-06T01:15:00;38.13;;;22.20;;
84889;SDS011;75153;52.222;5.160;2024-03-06T01:17:26;33.55;;;20.73;;
84889;SDS011;75153;52.222;5.160;2024-03-06T01:19:51;33.50;;;20.40;;
84889;SDS011;75153;52.222;5.160;2024-03-06T01:22:17;35.27;;;21.40;;
84889;SDS011;75153;52.222;5.160;2024-03-06T01:24:43;34.95;;;20.55;;
84889;SDS011;75153;52.222;5.160;2024-03-06T01:27:09;34.47;;;20.20;;
84889;SDS011;75153;52.222;5.160;2024-03-06T01:29:34;33.80;;;20.07;;
84889;SDS011;75153;52.222;5.160;2024-03-06T01:32:00;33.80;;;21.13;;
84889;SDS011;75153;52.222;5.160;2024-03-06T01:34:26;32.05;;;20.08;;
84889;SDS011;75153;52.222;5.160;2024-03-06T01:36:52;32.83;;;19.60;;
84889;SDS011;75153;52.222;5.160;2024-03-06T01:39:17;31.73;;;18.17;;
84889;SDS011;75153;52.222;5.160;2024-03-06T01:41:46;33.07;;;19.67;;
84889;SDS011;75153;52.222;5.160;2024-03-06T01:44:13;27.77;;;18.55;;
84889;SDS011;75153;52.222;5.160;2024-03-06T01:46:39;33.13;;;19.27;;
84889;SDS011;75153;52.222;5.160;2024-03-06T01:49:05;27.93;;;17.50;;
84889;SDS011;75153;52.222;5.160;2024-03-06T01:51:31;30.13;;;18.60;;
84889;SDS011;75153;52.222;5.160;2024-03-06T01:53:57;31.88;;;19.30;;
84889;SDS011;75153;52.222;5.160;2024-03-06T01:56:23;33.20;;;19.73;;
84889;SDS011;75153;52.222;5.160;2024-03-06T01:58:49;32.30;;;19.75;;
84889;SDS011;75153;52.222;5.160;2024-03-06T02:01:14;31.80;;;19.83;;
84889;SDS011;75153;52.222;5.160;2024-03-06T02:03:41;29.35;;;18.30;;
84889;SDS011;75153;52.222;5.160;2024-03-06T02:06:07;34.83;;;20.58;;
84889;SDS011;75153;52.222;5.160;2024-03-06T02:08:35;32.58;;;19.52;;
84889;SDS011;75153;52.222;5.160;2024-03-06T02:11:00;32.60;;;20.47;;
84889;SDS011;75153;52.222;5.160;2024-03-06T02:13:28;36.88;;;21.35;;
84889;SDS011;75153;52.222;5.160;2024-03-06T02:15:54;34.97;;;21.00;;
84889;SDS011;75153;52.222;5.160;2024-03-06T02:18:20;33.37;;;19.93;;
84889;SDS011;75153;52.222;5.160;2024-03-06T02:20:46;40.78;;;24.17;;
84889;SDS011;75153;52.222;5.160;2024-03-06T02:23:12;36.47;;;21.37;;
84889;SDS011;75153;52.222;5.160;2024-03-06T02:25:39;33.75;;;20.15;;
84889;SDS011;75153;52.222;5.160;2024-03-06T02:28:05;33.45;;;19.98;;
84889;SDS011;75153;52.222;5.160;2024-03-06T02:30:31;38.90;;;21.93;;
84889;SDS011;75153;52.222;5.160;2024-03-06T02:33:01;34.65;;;20.88;;
84889;SDS011;75153;52.222;5.160;2024-03-06T02:35:27;33.58;;;20.20;;
84889;SDS011;75153;52.222;5.160;2024-03-06T02:37:52;37.00;;;21.13;;
84889;SDS011;75153;52.222;5.160;2024-03-06T02:40:18;39.43;;;21.57;;
84889;SDS011;75153;52.222;5.160;2024-03-06T02:42:43;37.33;;;22.37;;
84889;SDS011;75153;52.222;5.160;2024-03-06T02:45:08;36.33;;;21.63;;
84889;SDS011;75153;52.222;5.160;2024-03-06T02:47:34;35.65;;;22.48;;
84889;SDS011;75153;52.222;5.160;2024-03-06T02:49:59;38.17;;;22.07;;
84889;SDS011;75153;52.222;5.160;2024-03-06T02:52:25;37.07;;;20.97;;
84889;SDS011;75153;52.222;5.160;2024-03-06T02:54:50;37.27;;;21.30;;
84889;SDS011;75153;52.222;5.160;2024-03-06T02:57:15;35.27;;;21.33;;
84889;SDS011;75153;52.222;5.160;2024-03-06T02:59:42;37.03;;;22.48;;
84889;SDS011;75153;52.222;5.160;2024-03-06T03:02:08;38.58;;;22.60;;
84889;SDS011;75153;52.222;5.160;2024-03-06T03:04:33;35.50;;;22.77;;
84889;SDS011;75153;52.222;5.160;2024-03-06T03:06:58;38.88;;;23.35;;
84889;SDS011;75153;52.222;5.160;2024-03-06T03:09:24;40.78;;;23.35;;
84889;SDS011;75153;52.222;5.160;2024-03-06T03:11:49;37.33;;;22.00;;
84889;SDS011;75153;52.222;5.160;2024-03-06T03:14:15;37.73;;;22.47;;
84889;SDS011;75153;52.222;5.160;2024-03-06T03:16:40;37.45;;;22.30;;
84889;SDS011;75153;52.222;5.160;2024-03-06T03:19:07;40.70;;;23.00;;
84889;SDS011;75153;52.222;5.160;2024-03-06T03:21:33;44.78;;;24.90;;
84889;SDS011;75153;52.222;5.160;2024-03-06T03:23:59;37.67;;;22.13;;
84889;SDS011;75153;52.222;5.160;2024-03-06T03:26:24;37.87;;;22.70;;
84889;SDS011;75153;52.222;5.160;2024-03-06T03:28:50;37.17;;;21.93;;
84889;SDS011;75153;52.222;5.160;2024-03-06T03:31:15;40.05;;;23.00;;
84889;SDS011;75153;52.222;5.160;2024-03-06T03:33:41;41.03;;;22.63;;
84889;SDS011;75153;52.222;5.160;2024-03-06T03:36:07;36.17;;;22.27;;
84889;SDS011;75153;52.222;5.160;2024-03-06T03:38:33;37.53;;;22.35;;
84889;SDS011;75153;52.222;5.160;2024-03-06T03:41:11;37.83;;;21.55;;
84889;SDS011;75153;52.222;5.160;2024-03-06T03:43:41;37.80;;;22.33;;
84889;SDS011;75153;52.222;5.160;2024-03-06T03:46:07;36.35;;;21.92;;
84889;SDS011;75153;52.222;5.160;2024-03-06T03:48:32;37.90;;;22.10;;
84889;SDS011;75153;52.222;5.160;2024-03-06T03:51:02;39.33;;;22.90;;
84889;SDS011;75153;52.222;5.160;2024-03-06T03:53:30;38.60;;;23.02;;
84889;SDS011;75153;52.222;5.160;2024-03-06T03:55:55;36.10;;;21.53;;
84889;SDS011;75153;52.222;5.160;2024-03-06T03:58:20;39.87;;;22.47;;
84889;SDS011;75153;52.222;5.160;2024-03-06T04:00:46;37.50;;;22.57;;
84889;SDS011;75153;52.222;5.160;2024-03-06T04:03:11;39.20;;;21.67;;
84889;SDS011;75153;52.222;5.160;2024-03-06T04:05:37;38.95;;;21.95;;
84889;SDS011;75153;52.222;5.160;2024-03-06T04:08:02;39.80;;;23.40;;
84889;SDS011;75153;52.222;5.160;2024-03-06T04:10:27;39.50;;;23.30;;
84889;SDS011;75153;52.222;5.160;2024-03-06T04:12:53;36.20;;;22.33;;
84889;SDS011;75153;52.222;5.160;2024-03-06T04:15:19;37.95;;;23.30;;
84889;SDS011;75153;52.222;5.160;2024-03-06T04:17:45;44.93;;;25.17;;
84889;SDS011;75153;52.222;5.160;2024-03-06T04:20:10;41.20;;;23.43;;
84889;SDS011;75153;52.222;5.160;2024-03-06T04:22:37;38.22;;;22.63;;
84889;SDS011;75153;52.222;5.160;2024-03-06T04:25:04;38.85;;;23.55;;
84889;SDS011;75153;52.222;5.160;2024-03-06T04:27:30;42.70;;;24.90;;
84889;SDS011;75153;52.222;5.160;2024-03-06T04:29:55;37.37;;;22.47;;
84889;SDS011;75153;52.222;5.160;2024-03-06T04:32:21;40.30;;;22.77;;
84889;SDS011;75153;52.222;5.160;2024-03-06T04:34:46;35.70;;;21.98;;
84889;SDS011;75153;52.222;5.160;2024-03-06T04:37:12;43.22;;;23.63;;
84889;SDS011;75153;52.222;5.160;2024-03-06T04:39:37;38.30;;;23.40;;
84889;SDS011;75153;52.222;5.160;2024-03-06T04:42:03;40.50;;;24.57;;
84889;SDS011;75153;52.222;5.160;2024-03-06T04:44:28;38.92;;;22.70;;
84889;SDS011;75153;52.222;5.160;2024-03-06T04:46:54;40.03;;;23.60;;
84889;SDS011;75153;52.222;5.160;2024-03-06T04:49:19;39.80;;;23.03;;
84889;SDS011;75153;52.222;5.160;2024-03-06T04:51:44;39.60;;;22.40;;
84889;SDS011;75153;52.222;5.160;2024-03-06T04:54:10;40.17;;;23.00;;
84889;SDS011;75153;52.222;5.160;2024-03-06T04:56:35;37.63;;;22.58;;
84889;SDS011;75153;52.222;5.160;2024-03-06T04:59:00;43.38;;;24.80;;
84889;SDS011;75153;52.222;5.160;2024-03-06T05:01:28;41.03;;;23.57;;
84889;SDS011;75153;52.222;5.160;2024-03-06T05:03:54;38.30;;;22.48;;
84889;SDS011;75153;52.222;5.160;2024-03-06T05:06:21;41.47;;;23.50;;
84889;SDS011;75153;52.222;5.160;2024-03-06T05:08:47;44.90;;;25.10;;
84889;SDS011;75153;52.222;5.160;2024-03-06T05:11:13;44.73;;;25.63;;
84889;SDS011;75153;52.222;5.160;2024-03-06T05:13:38;38.77;;;22.97;;
84889;SDS011;75153;52.222;5.160;2024-03-06T05:16:04;39.33;;;22.90;;
84889;SDS011;75153;52.222;5.160;2024-03-06T05:18:30;39.97;;;22.80;;
84889;SDS011;75153;52.222;5.160;2024-03-06T05:20:55;38.83;;;22.17;;
84889;SDS011;75153;52.222;5.160;2024-03-06T05:23:21;40.17;;;23.33;;
84889;SDS011;75153;52.222;5.160;2024-03-06T05:25:46;40.20;;;22.83;;
84889;SDS011;75153;52.222;5.160;2024-03-06T05:28:12;39.10;;;22.73;;
84889;SDS011;75153;52.222;5.160;2024-03-06T05:30:37;43.90;;;25.10;;
84889;SDS011;75153;52.222;5.160;2024-03-06T05:33:02;42.53;;;24.40;;
84889;SDS011;75153;52.222;5.160;2024-03-06T05:35:28;41.90;;;24.58;;
84889;SDS011;75153;52.222;5.160;2024-03-06T05:37:53;42.13;;;24.17;;
84889;SDS011;75153;52.222;5.160;2024-03-06T05:40:19;39.87;;;23.47;;
84889;SDS011;75153;52.222;5.160;2024-03-06T05:42:44;41.33;;;24.70;;
84889;SDS011;75153;52.222;5.160;2024-03-06T05:45:10;38.53;;;22.25;;
84889;SDS011;75153;52.222;5.160;2024-03-06T05:47:35;39.20;;;22.10;;
84889;SDS011;75153;52.222;5.160;2024-03-06T05:50:01;39.15;;;22.92;;
84889;SDS011;75153;52.222;5.160;2024-03-06T05:52:30;41.45;;;24.42;;
84889;SDS011;75153;52.222;5.160;2024-03-06T05:54:55;43.80;;;24.67;;
84889;SDS011;75153;52.222;5.160;2024-03-06T05:57:21;40.67;;;23.00;;
84889;SDS011;75153;52.222;5.160;2024-03-06T05:59:46;40.23;;;21.90;;
84889;SDS011;75153;52.222;5.160;2024-03-06T06:02:12;35.37;;;21.67;;
84889;SDS011;75153;52.222;5.160;2024-03-06T06:04:37;42.03;;;24.93;;
84889;SDS011;75153;52.222;5.160;2024-03-06T06:07:02;42.85;;;24.20;;
84889;SDS011;75153;52.222;5.160;2024-03-06T06:09:28;40.65;;;23.20;;
84889;SDS011;75153;52.222;5.160;2024-03-06T06:11:54;44.73;;;24.93;;
84889;SDS011;75153;52.222;5.160;2024-03-06T06:14:19;40.90;;;23.60;;
84889;SDS011;75153;52.222;5.160;2024-03-06T06:16:45;39.45;;;23.00;;
84889;SDS011;75153;52.222;5.160;2024-03-06T06:19:10;38.87;;;22.83;;
84889;SDS011;75153;52.222;5.160;2024-03-06T06:21:36;43.83;;;24.90;;
84889;SDS011;75153;52.222;5.160;2024-03-06T06:24:02;39.17;;;23.30;;
84889;SDS011;75153;52.222;5.160;2024-03-06T06:26:29;37.53;;;22.98;;
84889;SDS011;75153;52.222;5.160;2024-03-06T06:28:56;40.80;;;23.80;;
84889;SDS011;75153;52.222;5.160;2024-03-06T06:31:22;42.50;;;24.80;;
84889;SDS011;75153;52.222;5.160;2024-03-06T06:33:50;42.33;;;23.35;;
84889;SDS011;75153;52.222;5.160;2024-03-06T06:36:16;42.17;;;24.23;;
84889;SDS011;75153;52.222;5.160;2024-03-06T06:38:42;42.65;;;23.08;;
84889;SDS011;75153;52.222;5.160;2024-03-06T06:41:09;41.03;;;23.87;;
84889;SDS011;75153;52.222;5.160;2024-03-06T06:43:35;39.50;;;23.38;;
84889;SDS011;75153;52.222;5.160;2024-03-06T06:46:01;42.33;;;23.42;;
84889;SDS011;75153;52.222;5.160;2024-03-06T06:48:27;38.45;;;22.25;;
84889;SDS011;75153;52.222;5.160;2024-03-06T06:50:53;44.70;;;25.63;;
84889;SDS011;75153;52.222;5.160;2024-03-06T06:53:18;41.80;;;24.67;;
84889;SDS011;75153;52.222;5.160;2024-03-06T06:55:44;44.40;;;24.92;;
84889;SDS011;75153;52.222;5.160;2024-03-06T06:58:10;45.43;;;25.13;;
84889;SDS011;75153;52.222;5.160;2024-03-06T07:00:35;43.37;;;25.13;;
84889;SDS011;75153;52.222;5.160;2024-03-06T07:03:02;44.10;;;24.50;;
84889;SDS011;75153;52.222;5.160;2024-03-06T07:05:28;44.65;;;24.23;;
84889;SDS011;75153;52.222;5.160;2024-03-06T07:07:54;41.88;;;23.88;;
84889;SDS011;75153;52.222;5.160;2024-03-06T07:10:20;44.57;;;25.43;;
84889;SDS011;75153;52.222;5.160;2024-03-06T07:12:46;41.20;;;23.27;;
84889;SDS011;75153;52.222;5.160;2024-03-06T07:15:12;45.60;;;24.03;;
84889;SDS011;75153;52.222;5.160;2024-03-06T07:17:37;44.17;;;24.38;;
84889;SDS011;75153;52.222;5.160;2024-03-06T07:20:03;42.63;;;23.63;;
84889;SDS011;75153;52.222;5.160;2024-03-06T07:22:30;41.97;;;21.65;;
84889;SDS011;75153;52.222;5.160;2024-03-06T07:24:59;50.25;;;27.80;;
84889;SDS011;75153;52.222;5.160;2024-03-06T07:27:25;46.07;;;24.93;;
84889;SDS011;75153;52.222;5.160;2024-03-06T07:29:51;49.28;;;26.88;;
84889;SDS011;75153;52.222;5.160;2024-03-06T07:32:16;47.22;;;26.45;;
84889;SDS011;75153;52.222;5.160;2024-03-06T07:34:41;46.13;;;25.93;;
84889;SDS011;75153;52.222;5.160;2024-03-06T07:37:07;48.63;;;26.53;;
84889;SDS011;75153;52.222;5.160;2024-03-06T07:39:32;51.07;;;26.53;;
84889;SDS011;75153;52.222;5.160;2024-03-06T07:41:59;71.55;;;31.92;;
84889;SDS011;75153;52.222;5.160;2024-03-06T07:44:24;50.20;;;26.50;;
84889;SDS011;75153;52.222;5.160;2024-03-06T07:46:49;47.37;;;26.53;;
84889;SDS011;75153;52.222;5.160;2024-03-06T07:49:15;46.27;;;24.17;;
84889;SDS011;75153;52.222;5.160;2024-03-06T07:51:40;66.60;;;29.23;;
84889;SDS011;75153;52.222;5.160;2024-03-06T07:54:06;68.30;;;29.85;;
84889;SDS011;75153;52.222;5.160;2024-03-06T07:56:32;84.70;;;30.17;;
84889;SDS011;75153;52.222;5.160;2024-03-06T07:58:58;48.85;;;25.63;;
84889;SDS011;75153;52.222;5.160;2024-03-06T08:01:23;44.17;;;24.57;;
84889;SDS011;75153;52.222;5.160;2024-03-06T08:03:49;44.53;;;25.27;;
84889;SDS011;75153;52.222;5.160;2024-03-06T08:06:15;40.25;;;23.45;;
84889;SDS011;75153;52.222;5.160;2024-03-06T08:08:43;38.15;;;22.85;;
84889;SDS011;75153;52.222;5.160;2024-03-06T08:11:12;41.20;;;23.00;;
84889;SDS011;75153;52.222;5.160;2024-03-06T08:13:38;38.90;;;22.23;;
84889;SDS011;75153;52.222;5.160;2024-03-06T08:16:04;49.92;;;26.85;;
84889;SDS011;75153;52.222;5.160;2024-03-06T08:18:30;44.95;;;24.38;;
84889;SDS011;75153;52.222;5.160;2024-03-06T08:20:57;46.40;;;26.17;;
84889;SDS011;75153;52.222;5.160;2024-03-06T08:23:22;41.90;;;24.15;;
84889;SDS011;75153;52.222;5.160;2024-03-06T08:25:49;42.08;;;24.58;;
84889;SDS011;75153;52.222;5.160;2024-03-06T08:28:14;38.95;;;21.77;;
84889;SDS011;75153;52.222;5.160;2024-03-06T08:30:40;46.22;;;24.67;;
84889;SDS011;75153;52.222;5.160;2024-03-06T08:33:06;45.40;;;24.93;;
84889;SDS011;75153;52.222;5.160;2024-03-06T08:35:31;53.03;;;28.47;;
84889;SDS011;75153;52.222;5.160;2024-03-06T08:37:57;44.20;;;24.87;;
84889;SDS011;75153;52.222;5.160;2024-03-06T08:40:24;45.83;;;25.90;;
84889;SDS011;75153;52.222;5.160;2024-03-06T08:42:52;42.53;;;23.35;;
84889;SDS011;75153;52.222;5.160;2024-03-06T08:45:17;50.28;;;27.58;;
84889;SDS011;75153;52.222;5.160;2024-03-06T08:47:43;44.60;;;26.63;;
84889;SDS011;75153;52.222;5.160;2024-03-06T08:50:10;51.95;;;28.33;;
84889;SDS011;75153;52.222;5.160;2024-03-06T08:52:36;41.85;;;24.75;;
84889;SDS011;75153;52.222;5.160;2024-03-06T08:55:02;51.27;;;29.10;;
84889;SDS011;75153;52.222;5.160;2024-03-06T08:57:34;51.15;;;27.08;;
84889;SDS011;75153;52.222;5.160;2024-03-06T09:00:00;39.50;;;22.23;;
84889;SDS011;75153;52.222;5.160;2024-03-06T09:02:26;44.97;;;24.88;;
84889;SDS011;75153;52.222;5.160;2024-03-06T09:04:53;52.33;;;29.53;;
84889;SDS011;75153;52.222;5.160;2024-03-06T09:07:19;39.95;;;22.70;;
84889;SDS011;75153;52.222;5.160;2024-03-06T09:09:45;46.20;;;26.35;;
84889;SDS011;75153;52.222;5.160;2024-03-06T09:12:10;48.00;;;27.38;;
84889;SDS011;75153;52.222;5.160;2024-03-06T09:14:39;42.77;;;24.97;;
84889;SDS011;75153;52.222;5.160;2024-03-06T09:17:05;39.80;;;23.00;;
84889;SDS011;75153;52.222;5.160;2024-03-06T09:19:31;37.38;;;21.38;;
84889;SDS011;75153;52.222;5.160;2024-03-06T09:21:57;43.50;;;25.23;;
84889;SDS011;75153;52.222;5.160;2024-03-06T09:24:23;35.35;;;21.30;;
84889;SDS011;75153;52.222;5.160;2024-03-06T09:26:50;32.88;;;19.70;;
84889;SDS011;75153;52.222;5.160;2024-03-06T09:29:16;41.30;;;25.53;;
84889;SDS011;75153;52.222;5.160;2024-03-06T09:31:42;34.05;;;21.10;;
84889;SDS011;75153;52.222;5.160;2024-03-06T09:34:08;42.10;;;25.83;;
84889;SDS011;75153;52.222;5.160;2024-03-06T09:36:37;34.03;;;21.37;;
84889;SDS011;75153;52.222;5.160;2024-03-06T09:39:10;35.25;;;21.92;;
84889;SDS011;75153;52.222;5.160;2024-03-06T09:41:36;36.13;;;21.58;;
84889;SDS011;75153;52.222;5.160;2024-03-06T09:44:01;34.90;;;20.90;;
84889;SDS011;75153;52.222;5.160;2024-03-06T09:46:27;31.45;;;19.90;;
84889;SDS011;75153;52.222;5.160;2024-03-06T09:48:54;33.28;;;20.00;;
84889;SDS011;75153;52.222;5.160;2024-03-06T09:51:20;35.80;;;21.60;;
84889;SDS011;75153;52.222;5.160;2024-03-06T09:53:46;32.45;;;19.88;;
84889;SDS011;75153;52.222;5.160;2024-03-06T09:56:14;36.50;;;22.10;;
84889;SDS011;75153;52.222;5.160;2024-03-06T09:58:40;36.93;;;22.40;;
84889;SDS011;75153;52.222;5.160;2024-03-06T10:01:05;36.70;;;22.00;;
84889;SDS011;75153;52.222;5.160;2024-03-06T10:03:33;31.83;;;18.83;;
84889;SDS011;75153;52.222;5.160;2024-03-06T10:06:01;36.85;;;21.63;;
84889;SDS011;75153;52.222;5.160;2024-03-06T10:08:27;31.77;;;18.65;;
84889;SDS011;75153;52.222;5.160;2024-03-06T10:10:53;32.50;;;19.80;;
84889;SDS011;75153;52.222;5.160;2024-03-06T10:13:25;31.30;;;19.55;;
84889;SDS011;75153;52.222;5.160;2024-03-06T10:16:01;29.13;;;17.42;;
84889;SDS011;75153;52.222;5.160;2024-03-06T10:18:28;30.00;;;18.27;;
84889;SDS011;75153;52.222;5.160;2024-03-06T10:20:54;29.37;;;17.63;;
84889;SDS011;75153;52.222;5.160;2024-03-06T10:23:20;28.50;;;17.25;;
84889;SDS011;75153;52.222;5.160;2024-03-06T10:25:46;28.98;;;16.60;;
84889;SDS011;75153;52.222;5.160;2024-03-06T10:28:19;23.53;;;15.80;;
84889;SDS011;75153;52.222;5.160;2024-03-06T10:30:46;31.35;;;18.23;;
84889;SDS011;75153;52.222;5.160;2024-03-06T10:33:13;27.42;;;17.38;;
84889;SDS011;75153;52.222;5.160;2024-03-06T10:35:39;32.88;;;18.85;;
84889;SDS011;75153;52.222;5.160;2024-03-06T10:38:06;26.88;;;16.65;;
84889;SDS011;75153;52.222;5.160;2024-03-06T10:40:51;26.43;;;16.57;;
84889;SDS011;75153;52.222;5.160;2024-03-06T10:43:17;26.27;;;15.13;;
84889;SDS011;75153;52.222;5.160;2024-03-06T10:48:21;25.25;;;15.95;;
84889;SDS011;75153;52.222;5.160;2024-03-06T10:50:47;29.27;;;17.97;;
84889;SDS011;75153;52.222;5.160;2024-03-06T10:53:14;28.05;;;17.38;;
84889;SDS011;75153;52.222;5.160;2024-03-06T10:55:44;26.33;;;14.90;;
84889;SDS011;75153;52.222;5.160;2024-03-06T10:58:10;19.63;;;12.55;;
84889;SDS011;75153;52.222;5.160;2024-03-06T11:00:46;21.60;;;13.57;;
84889;SDS011;75153;52.222;5.160;2024-03-06T11:03:12;19.05;;;13.73;;
84889;SDS011;75153;52.222;5.160;2024-03-06T11:05:42;21.65;;;13.63;;
84889;SDS011;75153;52.222;5.160;2024-03-06T11:08:10;21.83;;;13.63;;
84889;SDS011;75153;52.222;5.160;2024-03-06T11:10:39;19.33;;;12.63;;
84889;SDS011;75153;52.222;5.160;2024-03-06T11:15:37;19.17;;;12.23;;
84889;SDS011;75153;52.222;5.160;2024-03-06T11:18:47;19.70;;;12.88;;
84889;SDS011;75153;52.222;5.160;2024-03-06T11:23:28;16.95;;;9.55;;
84889;SDS011;75153;52.222;5.160;2024-03-06T11:31:16;12.00;;;7.75;;
84889;SDS011;75153;52.222;5.160;2024-03-06T11:33:45;13.00;;;7.90;;
84889;SDS011;75153;52.222;5.160;2024-03-06T11:36:12;11.55;;;7.70;;
84889;SDS011;75153;52.222;5.160;2024-03-06T11:38:42;13.23;;;8.40;;
84889;SDS011;75153;52.222;5.160;2024-03-06T11:41:08;12.63;;;8.00;;
84889;SDS011;75153;52.222;5.160;2024-03-06T11:43:41;11.27;;;6.90;;
84889;SDS011;75153;52.222;5.160;2024-03-06T11:46:08;11.30;;;7.15;;
84889;SDS011;75153;52.222;5.160;2024-03-06T11:48:35;11.60;;;7.28;;
84889;SDS011;75153;52.222;5.160;2024-03-06T11:51:01;10.53;;;6.47;;
84889;SDS011;75153;52.222;5.160;2024-03-06T11:53:30;10.15;;;6.05;;
84889;SDS011;75153;52.222;5.160;2024-03-06T11:55:57;9.57;;;5.75;;
84889;SDS011;75153;52.222;5.160;2024-03-06T11:58:23;9.05;;;5.38;;
84889;SDS011;75153;52.222;5.160;2024-03-06T12:00:49;10.90;;;6.25;;
84889;SDS011;75153;52.222;5.160;2024-03-06T12:03:14;11.43;;;6.00;;
84889;SDS011;75153;52.222;5.160;2024-03-06T12:05:40;9.30;;;5.73;;
84889;SDS011;75153;52.222;5.160;2024-03-06T12:08:06;8.23;;;5.40;;
84889;SDS011;75153;52.222;5.160;2024-03-06T12:10:36;10.00;;;5.80;;
84889;SDS011;75153;52.222;5.160;2024-03-06T12:13:02;10.63;;;5.70;;
84889;SDS011;75153;52.222;5.160;2024-03-06T12:15:28;7.30;;;5.20;;
84889;SDS011;75153;52.222;5.160;2024-03-06T12:17:54;9.50;;;5.23;;
84889;SDS011;75153;52.222;5.160;2024-03-06T12:20:19;8.93;;;6.18;;
84889;SDS011;75153;52.222;5.160;2024-03-06T12:22:48;8.80;;;4.97;;
84889;SDS011;75153;52.222;5.160;2024-03-06T12:25:32;7.22;;;4.53;;
84889;SDS011;75153;52.222;5.160;2024-03-06T12:28:05;10.50;;;7.70;;
84889;SDS011;75153;52.222;5.160;2024-03-06T12:30:39;10.00;;;6.15;;
84889;SDS011;75153;52.222;5.160;2024-03-06T12:33:09;12.45;;;7.35;;
84889;SDS011;75153;52.222;5.160;2024-03-06T12:35:39;9.45;;;6.15;;
84889;SDS011;75153;52.222;5.160;2024-03-06T12:38:11;13.53;;;6.77;;
84889;SDS011;75153;52.222;5.160;2024-03-06T12:40:39;9.52;;;6.30;;
84889;SDS011;75153;52.222;5.160;2024-03-06T12:43:04;12.27;;;6.47;;
84889;SDS011;75153;52.222;5.160;2024-03-06T12:45:30;12.35;;;7.97;;
84889;SDS011;75153;52.222;5.160;2024-03-06T12:47:55;9.97;;;6.83;;
84889;SDS011;75153;52.222;5.160;2024-03-06T12:50:21;10.25;;;6.70;;
84889;SDS011;75153;52.222;5.160;2024-03-06T12:52:47;12.47;;;8.00;;
84889;SDS011;75153;52.222;5.160;2024-03-06T12:55:12;14.60;;;9.03;;
84889;SDS011;75153;52.222;5.160;2024-03-06T12:57:39;13.75;;;8.80;;
84889;SDS011;75153;52.222;5.160;2024-03-06T13:00:05;12.33;;;8.03;;
84889;SDS011;75153;52.222;5.160;2024-03-06T13:02:41;11.63;;;8.00;;
84889;SDS011;75153;52.222;5.160;2024-03-06T13:05:10;12.48;;;8.40;;
84889;SDS011;75153;52.222;5.160;2024-03-06T13:07:35;12.17;;;8.10;;
84889;SDS011;75153;52.222;5.160;2024-03-06T13:10:01;11.45;;;8.05;;
84889;SDS011;75153;52.222;5.160;2024-03-06T13:12:29;10.88;;;7.20;;
84889;SDS011;75153;52.222;5.160;2024-03-06T13:14:55;12.77;;;8.03;;
84889;SDS011;75153;52.222;5.160;2024-03-06T13:17:21;9.70;;;6.20;;
84889;SDS011;75153;52.222;5.160;2024-03-06T13:19:46;10.50;;;7.07;;
84889;SDS011;75153;52.222;5.160;2024-03-06T13:22:12;9.97;;;6.57;;
84889;SDS011;75153;52.222;5.160;2024-03-06T13:24:37;9.17;;;6.20;;
84889;SDS011;75153;52.222;5.160;2024-03-06T13:27:03;9.23;;;6.07;;
84889;SDS011;75153;52.222;5.160;2024-03-06T13:29:29;8.77;;;6.25;;
84889;SDS011;75153;52.222;5.160;2024-03-06T13:31:54;10.37;;;6.53;;
84889;SDS011;75153;52.222;5.160;2024-03-06T13:34:20;8.43;;;6.30;;
84889;SDS011;75153;52.222;5.160;2024-03-06T13:36:45;10.37;;;6.60;;
84889;SDS011;75153;52.222;5.160;2024-03-06T13:39:11;12.75;;;6.65;;
84889;SDS011;75153;52.222;5.160;2024-03-06T13:41:36;9.97;;;6.30;;
84889;SDS011;75153;52.222;5.160;2024-03-06T13:44:02;9.33;;;6.47;;
84889;SDS011;75153;52.222;5.160;2024-03-06T13:46:27;11.73;;;6.63;;
84889;SDS011;75153;52.222;5.160;2024-03-06T13:48:52;10.30;;;6.83;;
84889;SDS011;75153;52.222;5.160;2024-03-06T13:51:18;11.88;;;6.43;;
84889;SDS011;75153;52.222;5.160;2024-03-06T13:53:43;10.90;;;5.90;;
84889;SDS011;75153;52.222;5.160;2024-03-06T13:56:08;10.17;;;5.87;;
84889;SDS011;75153;52.222;5.160;2024-03-06T13:58:34;9.40;;;6.17;;
84889;SDS011;75153;52.222;5.160;2024-03-06T14:00:59;11.23;;;6.93;;
84889;SDS011;75153;52.222;5.160;2024-03-06T14:03:28;8.50;;;6.07;;
84889;SDS011;75153;52.222;5.160;2024-03-06T14:05:53;8.60;;;5.57;;
84889;SDS011;75153;52.222;5.160;2024-03-06T14:08:18;8.60;;;5.80;;
84889;SDS011;75153;52.222;5.160;2024-03-06T14:10:44;8.68;;;5.00;;
84889;SDS011;75153;52.222;5.160;2024-03-06T14:13:10;6.75;;;4.60;;
84889;SDS011;75153;52.222;5.160;2024-03-06T14:15:36;6.53;;;4.13;;
84889;SDS011;75153;52.222;5.160;2024-03-06T14:18:01;6.53;;;4.20;;
84889;SDS011;75153;52.222;5.160;2024-03-06T14:20:27;7.87;;;4.57;;
84889;SDS011;75153;52.222;5.160;2024-03-06T14:22:53;6.63;;;4.10;;
84889;SDS011;75153;52.222;5.160;2024-03-06T14:25:19;11.32;;;5.90;;
84889;SDS011;75153;52.222;5.160;2024-03-06T14:27:44;13.90;;;6.10;;
84889;SDS011;75153;52.222;5.160;2024-03-06T14:30:11;9.18;;;5.85;;
84889;SDS011;75153;52.222;5.160;2024-03-06T14:32:37;10.63;;;5.82;;
84889;SDS011;75153;52.222;5.160;2024-03-06T14:35:03;8.20;;;4.90;;